createdAt,value
2017-02-14T00:00:47.878Z,35.34
2017-02-14T00:01:58.584Z,35.34
2017-02-14T00:03:08.915Z,35.24
2017-02-14T00:04:19.199Z,35.34
2017-02-14T00:05:29.905Z,35.34
2017-02-14T00:06:40.446Z,35.43
2017-02-14T00:07:50.775Z,35.34
2017-02-14T00:09:00.719Z,35.34
2017-02-14T00:10:11.024Z,35.34
2017-02-14T00:11:21.681Z,35.34
2017-02-14T00:12:31.882Z,35.24
2017-02-14T00:13:42.614Z,35.34
2017-02-14T00:14:52.907Z,35.43
2017-02-14T00:16:03.604Z,35.43
2017-02-14T00:17:14.276Z,35.34
2017-02-14T00:18:24.813Z,35.24
2017-02-14T00:19:35.142Z,35.34
2017-02-14T00:20:45.439Z,35.24
2017-02-14T00:21:56.135Z,35.34
2017-02-14T00:23:06.827Z,35.43
2017-02-14T00:24:17.355Z,35.34
2017-02-14T00:25:28.075Z,35.43
2017-02-14T00:26:37.975Z,35.34
2017-02-14T00:27:48.654Z,35.34
2017-02-14T00:28:58.950Z,35.43
2017-02-14T00:30:09.895Z,35.24
2017-02-14T00:31:19.831Z,35.34
2017-02-14T00:32:30.519Z,35.14
2017-02-14T00:33:40.808Z,35.14
2017-02-14T00:34:50.711Z,35.43
2017-02-14T00:36:01.641Z,35.34
2017-02-14T00:37:11.549Z,35.24
2017-02-14T00:38:21.850Z,35.34
2017-02-14T00:39:32.122Z,35.34
2017-02-14T00:40:42.841Z,35.14
2017-02-14T00:41:53.805Z,35.24
2017-02-14T00:43:04.122Z,35.24
2017-02-14T00:44:14.815Z,35.34
2017-02-14T00:45:25.537Z,35.24
2017-02-14T00:46:35.429Z,35.34
2017-02-14T00:47:45.606Z,35.24
2017-02-14T00:48:55.926Z,35.24
2017-02-14T00:50:06.636Z,35.34
2017-02-14T00:51:16.948Z,35.14
2017-02-14T00:52:27.633Z,35.34
2017-02-14T00:54:46.416Z,35.24
2017-02-14T00:55:57.079Z,35.34
2017-02-14T00:57:06.600Z,35.43
2017-02-14T00:58:16.914Z,35.43
2017-02-14T00:59:26.422Z,35.24
2017-02-14T01:00:36.948Z,35.14
2017-02-14T01:01:47.674Z,35.43
2017-02-14T01:02:58.377Z,35.24
2017-02-14T01:04:08.679Z,35.53
2017-02-14T01:05:19.354Z,35.43
2017-02-14T01:06:30.051Z,35.43
2017-02-14T01:07:40.360Z,35.24
2017-02-14T01:08:50.683Z,35.24
2017-02-14T01:10:01.006Z,35.34
2017-02-14T01:11:10.608Z,35.34
2017-02-14T01:12:21.267Z,35.34
2017-02-14T01:13:31.963Z,35.34
2017-02-14T01:14:42.271Z,35.34
2017-02-14T01:15:52.572Z,35.14
2017-02-14T01:17:03.281Z,35.05
2017-02-14T01:18:12.949Z,35.14
2017-02-14T01:19:22.855Z,35.43
2017-02-14T01:20:32.740Z,35.14
2017-02-14T01:21:42.654Z,35.14
2017-02-14T01:22:52.959Z,35.34
2017-02-14T01:24:03.524Z,35.05
2017-02-14T01:25:13.832Z,35.14
2017-02-14T01:26:24.111Z,35.34
2017-02-14T01:27:34.806Z,35.05
2017-02-14T01:28:45.504Z,35.14
2017-02-14T01:29:56.298Z,35.14
2017-02-14T01:31:06.202Z,35.14
2017-02-14T01:32:16.504Z,35.14
2017-02-14T01:33:27.162Z,35.34
2017-02-14T01:34:37.522Z,35.05
2017-02-14T01:35:47.569Z,35.05
2017-02-14T01:36:57.884Z,35.24
2017-02-14T01:38:08.186Z,35.24
2017-02-14T01:39:18.529Z,35.34
2017-02-14T01:40:28.826Z,35.14
2017-02-14T01:41:38.895Z,35.24
2017-02-14T01:42:48.811Z,35.05
2017-02-14T01:43:59.490Z,35.05
2017-02-14T01:45:09.783Z,35.05
2017-02-14T01:46:19.673Z,34.95
2017-02-14T01:47:30.615Z,35.24
2017-02-14T01:48:40.954Z,35.05
2017-02-14T01:49:51.649Z,35.05
2017-02-14T01:51:01.155Z,35.05
2017-02-14T01:52:12.127Z,35.05
2017-02-14T01:53:22.676Z,35.05
2017-02-14T01:54:33.364Z,35.24
2017-02-14T01:55:44.038Z,35.14
2017-02-14T01:56:54.730Z,35.24
2017-02-14T01:58:05.415Z,35.24
2017-02-14T01:59:15.402Z,35.14
2017-02-14T02:00:26.099Z,35.24
2017-02-14T02:01:36.424Z,35.24
2017-02-14T02:02:45.919Z,35.05
2017-02-14T02:03:55.809Z,35.24
2017-02-14T02:05:06.363Z,35.24
2017-02-14T02:06:17.111Z,34.95
2017-02-14T02:07:27.811Z,35.24
2017-02-14T02:08:37.701Z,35.05
2017-02-14T02:09:48.369Z,35.05
2017-02-14T02:10:59.328Z,35.05
2017-02-14T02:12:09.627Z,35.05
2017-02-14T02:13:19.139Z,35.05
2017-02-14T02:14:29.399Z,35.05
2017-02-14T02:15:40.067Z,35.05
2017-02-14T02:16:50.863Z,35.05
2017-02-14T02:18:01.146Z,35.24
2017-02-14T02:19:11.869Z,34.95
2017-02-14T02:20:21.813Z,35.24
2017-02-14T02:21:32.487Z,35.05
2017-02-14T02:22:43.144Z,35.24
2017-02-14T02:23:53.812Z,34.95
2017-02-14T02:25:04.503Z,35.05
2017-02-14T02:26:14.852Z,35.24
2017-02-14T02:27:25.540Z,35.24
2017-02-14T02:28:36.086Z,35.05
2017-02-14T02:29:46.758Z,35.14
2017-02-14T02:30:57.072Z,35.14
2017-02-14T02:32:07.369Z,35.05
2017-02-14T02:33:18.053Z,35.24
2017-02-14T02:34:28.832Z,35.14
2017-02-14T02:35:38.741Z,35.05
2017-02-14T02:36:49.070Z,35.05
2017-02-14T02:37:59.008Z,35.14
2017-02-14T02:39:09.291Z,34.95
2017-02-14T02:40:20.064Z,35.05
2017-02-14T02:41:30.362Z,35.05
2017-02-14T02:42:40.294Z,35.24
2017-02-14T02:43:50.245Z,35.14
2017-02-14T02:45:00.467Z,35.14
2017-02-14T02:46:11.113Z,35.05
2017-02-14T02:47:21.043Z,35.05
2017-02-14T02:48:31.341Z,35.14
2017-02-14T02:49:41.655Z,35.05
2017-02-14T02:50:52.330Z,35.05
2017-02-14T02:52:03.276Z,35.14
2017-02-14T02:53:13.612Z,35.05
2017-02-14T02:54:24.336Z,35.05
2017-02-14T02:55:34.640Z,35.05
2017-02-14T02:56:44.165Z,34.95
2017-02-14T02:57:54.977Z,35.05
2017-02-14T02:59:05.283Z,34.95
2017-02-14T03:00:15.201Z,35.05
2017-02-14T03:01:25.556Z,35.05
2017-02-14T03:02:36.234Z,35.24
2017-02-14T03:03:46.875Z,34.95
2017-02-14T03:04:57.227Z,35.05
2017-02-14T03:06:07.927Z,34.95
2017-02-14T03:07:18.638Z,35.05
2017-02-14T03:08:28.941Z,34.95
2017-02-14T03:09:39.631Z,35.05
2017-02-14T03:10:50.298Z,34.95
2017-02-14T03:12:00.229Z,35.05
2017-02-14T03:13:10.132Z,34.95
2017-02-14T03:14:20.423Z,34.86
2017-02-14T03:15:31.057Z,34.95
2017-02-14T03:16:41.764Z,35.05
2017-02-14T03:17:52.027Z,35.05
2017-02-14T03:19:02.703Z,35.05
2017-02-14T03:20:12.621Z,35.05
2017-02-14T03:21:23.206Z,35.05
2017-02-14T03:22:33.495Z,35.05
2017-02-14T03:23:43.420Z,35.05
2017-02-14T03:24:53.725Z,35.05
2017-02-14T03:26:04.019Z,35.05
2017-02-14T03:27:14.818Z,35.14
2017-02-14T03:28:25.805Z,35.05
2017-02-14T03:29:36.130Z,35.05
2017-02-14T03:30:46.395Z,35.14
2017-02-14T03:31:57.052Z,35.14
2017-02-14T03:33:08.090Z,35.05
2017-02-14T03:34:18.028Z,35.05
2017-02-14T03:35:28.717Z,35.05
2017-02-14T03:36:38.236Z,35.14
2017-02-14T03:37:48.593Z,35.14
2017-02-14T03:38:59.245Z,35.05
2017-02-14T03:40:08.756Z,35.14
2017-02-14T03:41:18.661Z,35.14
2017-02-14T03:42:29.343Z,35.05
2017-02-14T03:43:39.675Z,35.05
2017-02-14T03:44:49.936Z,35.14
2017-02-14T03:46:00.602Z,35.05
2017-02-14T03:47:11.266Z,35.05
2017-02-14T03:48:21.231Z,35.14
2017-02-14T03:49:31.901Z,35.05
2017-02-14T03:50:42.936Z,35.14
2017-02-14T03:51:53.603Z,35.14
2017-02-14T03:53:03.899Z,35.14
2017-02-14T03:54:13.773Z,35.05
2017-02-14T03:55:24.501Z,35.14
2017-02-14T03:56:35.510Z,35.14
2017-02-14T03:57:45.802Z,35.05
2017-02-14T03:58:55.334Z,35.14
2017-02-14T04:00:05.255Z,35.14
2017-02-14T04:01:15.583Z,35.14
2017-02-14T04:02:25.620Z,35.14
2017-02-14T04:03:35.179Z,35.14
2017-02-14T04:04:45.477Z,35.14
2017-02-14T04:05:55.786Z,35.05
2017-02-14T04:07:06.069Z,35.05
2017-02-14T04:08:15.921Z,35.05
2017-02-14T04:09:26.621Z,35.05
2017-02-14T04:10:36.539Z,35.05
2017-02-14T04:11:46.805Z,35.05
2017-02-14T04:12:57.115Z,35.05
2017-02-14T04:14:08.138Z,35.05
2017-02-14T04:15:18.806Z,35.05
2017-02-14T04:16:28.725Z,35.05
2017-02-14T04:17:38.220Z,34.95
2017-02-14T04:18:48.510Z,34.95
2017-02-14T04:19:59.038Z,35.05
2017-02-14T04:21:09.350Z,35.14
2017-02-14T04:22:19.662Z,35.05
2017-02-14T04:23:30.346Z,34.95
2017-02-14T04:24:41.024Z,35.14
2017-02-14T04:25:51.999Z,35.05
2017-02-14T04:27:02.296Z,35.05
2017-02-14T04:28:12.967Z,35.05
2017-02-14T04:29:23.282Z,35.05
2017-02-14T04:30:33.996Z,35.05
2017-02-14T04:31:44.626Z,34.95
2017-02-14T04:32:54.955Z,35.05
2017-02-14T04:34:05.813Z,35.05
2017-02-14T04:35:16.484Z,35.05
2017-02-14T04:36:26.914Z,34.95
2017-02-14T04:37:37.039Z,35.05
2017-02-14T04:38:47.346Z,35.05
2017-02-14T04:39:58.056Z,35.14
2017-02-14T04:41:07.969Z,35.05
2017-02-14T04:42:18.268Z,35.14
2017-02-14T04:43:28.905Z,34.95
2017-02-14T04:44:39.225Z,34.95
2017-02-14T04:45:49.907Z,35.05
2017-02-14T04:47:00.190Z,35.05
2017-02-14T04:48:10.177Z,35.05
2017-02-14T04:49:20.729Z,35.05
2017-02-14T04:50:31.419Z,35.05
2017-02-14T04:51:41.324Z,34.95
2017-02-14T04:52:52.038Z,35.05
2017-02-14T04:54:01.581Z,35.14
2017-02-14T04:55:12.151Z,35.14
2017-02-14T04:56:22.493Z,35.05
2017-02-14T04:57:32.445Z,34.95
2017-02-14T04:58:42.784Z,35.05
2017-02-14T04:59:53.512Z,34.95
2017-02-14T05:01:03.931Z,34.95
2017-02-14T05:02:14.218Z,35.14
2017-02-14T05:03:24.882Z,35.05
2017-02-14T05:04:35.183Z,35.14
2017-02-14T05:05:45.862Z,35.24
2017-02-14T05:06:56.256Z,35.14
2017-02-14T05:08:06.560Z,35.24
2017-02-14T05:09:17.216Z,35.14
2017-02-14T05:10:27.494Z,35.24
2017-02-14T05:11:37.794Z,35.05
2017-02-14T05:12:47.428Z,35.05
2017-02-14T05:13:58.110Z,35.14
2017-02-14T05:15:08.089Z,35.05
2017-02-14T05:16:18.417Z,34.95
2017-02-14T05:17:28.735Z,34.95
2017-02-14T05:18:39.564Z,35.05
2017-02-14T05:19:50.241Z,35.05
2017-02-14T05:21:00.153Z,35.05
2017-02-14T05:22:10.857Z,35.05
2017-02-14T05:23:21.538Z,34.95
2017-02-14T05:24:32.074Z,34.95
2017-02-14T05:25:42.351Z,34.95
2017-02-14T05:26:53.041Z,34.95
2017-02-14T05:28:03.331Z,35.05
2017-02-14T05:29:13.218Z,35.14
2017-02-14T05:30:23.861Z,35.05
2017-02-14T05:31:34.546Z,35.05
2017-02-14T05:32:44.498Z,35.05
2017-02-14T05:33:54.442Z,35.14
2017-02-14T05:35:04.414Z,35.05
2017-02-14T05:36:14.467Z,34.95
2017-02-14T05:37:24.778Z,34.95
2017-02-14T05:38:35.083Z,35.05
2017-02-14T05:39:45.821Z,35.14
2017-02-14T05:40:56.220Z,34.95
2017-02-14T05:42:07.191Z,35.24
2017-02-14T05:43:17.874Z,35.05
2017-02-14T05:44:27.423Z,35.05
2017-02-14T05:45:38.126Z,34.95
2017-02-14T05:46:48.447Z,35.14
2017-02-14T05:47:59.529Z,34.95
2017-02-14T05:49:09.829Z,35.05
2017-02-14T05:50:20.112Z,35.05
2017-02-14T05:51:30.047Z,34.95
2017-02-14T05:52:40.344Z,35.05
2017-02-14T05:53:51.309Z,35.05
2017-02-14T05:55:01.619Z,34.95
2017-02-14T05:56:12.341Z,35.05
2017-02-14T05:57:21.901Z,34.95
2017-02-14T05:58:31.871Z,35.05
2017-02-14T05:59:42.679Z,34.95
2017-02-14T06:00:52.613Z,34.95
2017-02-14T06:02:03.310Z,35.05
2017-02-14T06:03:13.205Z,34.95
2017-02-14T06:04:23.493Z,34.95
2017-02-14T06:05:33.534Z,34.95
2017-02-14T06:06:43.845Z,35.14
2017-02-14T06:07:53.750Z,34.95
2017-02-14T06:09:04.428Z,35.05
2017-02-14T06:10:15.123Z,35.14
2017-02-14T06:11:25.941Z,34.95
2017-02-14T06:12:36.629Z,35.05
2017-02-14T06:13:46.543Z,35.05
2017-02-14T06:14:56.826Z,35.05
2017-02-14T06:16:07.116Z,34.95
2017-02-14T06:17:17.505Z,35.05
2017-02-14T06:18:27.810Z,35.05
2017-02-14T06:19:38.097Z,35.05
2017-02-14T06:20:48.407Z,35.14
2017-02-14T06:21:58.686Z,35.05
2017-02-14T06:23:08.993Z,35.14
2017-02-14T06:24:19.295Z,35.05
2017-02-14T06:25:29.185Z,35.14
2017-02-14T06:26:39.864Z,35.14
2017-02-14T06:27:49.793Z,34.95
2017-02-14T06:29:00.614Z,34.95
2017-02-14T06:30:10.894Z,35.05
2017-02-14T06:31:21.179Z,34.95
2017-02-14T06:32:31.858Z,34.86
2017-02-14T06:33:42.158Z,34.95
2017-02-14T06:34:53.178Z,35.05
2017-02-14T06:36:03.492Z,35.05
2017-02-14T06:37:13.812Z,35.05
2017-02-14T06:38:24.141Z,35.14
2017-02-14T06:39:34.439Z,35.05
2017-02-14T06:40:45.358Z,34.95
2017-02-14T06:41:55.679Z,35.05
2017-02-14T06:43:05.989Z,35.05
2017-02-14T06:44:15.945Z,35.05
2017-02-14T06:45:26.243Z,35.24
2017-02-14T06:46:36.653Z,35.24
2017-02-14T06:47:46.969Z,35.24
2017-02-14T06:48:57.294Z,35.05
2017-02-14T06:50:07.970Z,35.14
2017-02-14T06:51:18.637Z,34.95
2017-02-14T06:52:29.177Z,35.05
2017-02-14T06:53:39.476Z,35.14
2017-02-14T06:54:49.808Z,35.14
2017-02-14T06:56:00.526Z,35.14
2017-02-14T06:57:10.456Z,34.95
2017-02-14T06:58:21.031Z,35.14
2017-02-14T06:59:31.332Z,35.14
2017-02-14T07:00:42.035Z,34.95
2017-02-14T07:01:52.331Z,35.24
2017-02-14T07:03:03.097Z,35.14
2017-02-14T07:04:13.862Z,35.05
2017-02-14T07:05:24.141Z,35.14
2017-02-14T07:06:34.035Z,35.24
2017-02-14T07:07:44.362Z,35.24
2017-02-14T07:08:54.291Z,35.14
2017-02-14T07:10:04.680Z,34.95
2017-02-14T07:11:14.567Z,35.14
2017-02-14T07:12:25.241Z,35.05
2017-02-14T07:13:35.571Z,34.95
2017-02-14T07:14:46.243Z,34.95
2017-02-14T07:15:56.292Z,35.05
2017-02-14T07:17:06.974Z,35.14
2017-02-14T07:18:17.673Z,35.05
2017-02-14T07:19:27.991Z,35.05
2017-02-14T07:20:38.747Z,35.05
2017-02-14T07:21:49.682Z,35.05
2017-02-14T07:22:59.966Z,35.05
2017-02-14T07:24:09.514Z,35.05
2017-02-14T07:25:19.824Z,35.05
2017-02-14T07:26:30.401Z,35.14
2017-02-14T07:27:40.177Z,35.05
2017-02-14T07:28:50.843Z,35.14
2017-02-14T07:30:00.747Z,35.05
2017-02-14T07:31:11.457Z,35.05
2017-02-14T07:32:22.174Z,35.14
2017-02-14T07:33:33.104Z,35.14
2017-02-14T07:34:43.783Z,35.05
2017-02-14T07:35:54.084Z,34.95
2017-02-14T07:37:04.012Z,34.95
2017-02-14T07:38:14.708Z,35.05
2017-02-14T07:39:25.691Z,34.95
2017-02-14T07:40:35.986Z,34.86
2017-02-14T07:41:45.875Z,35.05
2017-02-14T07:42:56.591Z,34.86
2017-02-14T07:44:06.525Z,34.86
2017-02-14T07:45:17.060Z,34.86
2017-02-14T07:46:27.721Z,34.95
2017-02-14T07:47:37.661Z,34.95
2017-02-14T07:48:48.005Z,34.95
2017-02-14T07:49:58.702Z,34.95
2017-02-14T07:51:09.507Z,34.95
2017-02-14T07:52:19.832Z,35.05
2017-02-14T07:53:30.119Z,35.05
2017-02-14T07:54:40.813Z,34.95
2017-02-14T07:55:51.491Z,35.05
2017-02-14T07:57:02.376Z,35.05
2017-02-14T07:58:13.046Z,35.05
2017-02-14T07:59:23.742Z,34.95
2017-02-14T08:00:34.391Z,34.95
2017-02-14T08:01:44.734Z,34.95
2017-02-14T08:02:54.926Z,35.14
2017-02-14T08:04:04.815Z,35.05
2017-02-14T08:05:15.131Z,35.05
2017-02-14T08:06:25.835Z,34.95
2017-02-14T08:07:35.742Z,34.95
2017-02-14T08:08:46.342Z,34.95
2017-02-14T08:09:56.627Z,35.05
2017-02-14T08:11:06.934Z,34.86
2017-02-14T08:12:16.819Z,35.05
2017-02-14T08:13:27.119Z,34.86
2017-02-14T08:14:37.720Z,35.05
2017-02-14T08:15:48.390Z,35.05
2017-02-14T08:16:58.671Z,35.05
2017-02-14T08:18:08.949Z,35.05
2017-02-14T08:19:19.246Z,34.95
2017-02-14T08:20:30.176Z,34.86
2017-02-14T08:21:40.840Z,34.86
2017-02-14T08:22:51.114Z,34.86
2017-02-14T08:24:01.443Z,34.86
2017-02-14T08:25:11.334Z,34.95
2017-02-14T08:26:22.372Z,34.95
2017-02-14T08:27:32.677Z,34.95
2017-02-14T08:28:43.357Z,34.86
2017-02-14T08:29:54.043Z,34.86
2017-02-14T08:31:04.357Z,34.95
2017-02-14T08:32:15.182Z,34.95
2017-02-14T08:33:25.460Z,34.95
2017-02-14T08:34:36.162Z,34.86
2017-02-14T08:35:46.845Z,34.97
2017-02-14T08:36:56.748Z,34.97
2017-02-14T08:38:06.405Z,34.95
2017-02-14T08:39:17.176Z,34.95
2017-02-14T08:40:27.455Z,34.88
2017-02-14T08:41:37.770Z,34.97
2017-02-14T08:42:48.478Z,34.95
2017-02-14T08:43:59.368Z,35.06
2017-02-14T08:45:08.587Z,34.97
2017-02-14T08:46:18.962Z,34.95
2017-02-14T08:47:29.673Z,34.97
2017-02-14T08:48:40.030Z,34.97
2017-02-14T08:49:50.669Z,34.88
2017-02-14T08:51:00.943Z,34.88
2017-02-14T08:52:11.263Z,35.06
2017-02-14T08:53:21.958Z,34.88
2017-02-14T08:54:32.327Z,34.97
2017-02-14T08:55:43.033Z,34.78
2017-02-14T08:56:52.960Z,34.97
2017-02-14T08:58:03.626Z,34.97
2017-02-14T08:59:14.298Z,35.45
2017-02-14T09:00:24.575Z,34.95
2017-02-14T09:01:35.525Z,34.97
2017-02-14T09:02:46.234Z,34.97
2017-02-14T09:03:56.918Z,35.06
2017-02-14T09:05:07.222Z,34.88
2017-02-14T09:06:17.117Z,34.97
2017-02-14T09:07:28.040Z,34.95
2017-02-14T09:08:38.725Z,34.78
2017-02-14T09:09:49.057Z,34.97
2017-02-14T09:10:59.355Z,34.97
2017-02-14T09:12:09.646Z,35.06
2017-02-14T09:13:20.437Z,35.06
2017-02-14T09:14:30.744Z,34.88
2017-02-14T09:15:41.420Z,34.97
2017-02-14T09:16:51.729Z,34.88
2017-02-14T09:18:02.467Z,35.06
2017-02-14T09:19:13.440Z,34.97
2017-02-14T09:20:24.136Z,35.06
2017-02-14T09:21:34.794Z,34.88
2017-02-14T09:22:45.464Z,35.06
2017-02-14T09:23:56.171Z,34.97
2017-02-14T09:25:06.586Z,35.06
2017-02-14T09:26:16.069Z,34.88
2017-02-14T09:27:25.986Z,34.97
2017-02-14T09:28:36.263Z,35.06
2017-02-14T09:29:47.238Z,34.88
2017-02-14T09:30:57.622Z,35.06
2017-02-14T09:32:08.301Z,34.97
2017-02-14T09:33:18.594Z,34.97
2017-02-14T09:34:28.934Z,34.97
2017-02-14T09:35:39.258Z,35.06
2017-02-14T09:36:49.815Z,35.06
2017-02-14T09:38:00.491Z,34.97
2017-02-14T09:39:10.408Z,34.97
2017-02-14T09:40:21.138Z,35.06
2017-02-14T09:41:31.436Z,34.97
2017-02-14T09:42:41.410Z,35.06
2017-02-14T09:43:52.101Z,35.06
2017-02-14T09:45:02.049Z,34.97
2017-02-14T09:46:12.636Z,35.16
2017-02-14T09:47:22.548Z,35.06
2017-02-14T09:48:32.594Z,34.88
2017-02-14T09:49:43.310Z,35.06
2017-02-14T09:50:53.639Z,34.97
2017-02-14T09:52:03.965Z,35.16
2017-02-14T09:53:14.264Z,34.97
2017-02-14T09:54:24.690Z,35.06
2017-02-14T09:55:35.692Z,34.97
2017-02-14T09:56:46.385Z,34.97
2017-02-14T09:57:57.086Z,34.97
2017-02-14T09:59:07.020Z,34.97
2017-02-14T10:00:17.287Z,34.97
2017-02-14T10:01:27.578Z,34.97
2017-02-14T10:02:37.946Z,35.06
2017-02-14T10:03:48.664Z,34.88
2017-02-14T10:04:59.394Z,35.26
2017-02-14T10:06:10.348Z,35.06
2017-02-14T10:07:21.069Z,35.06
2017-02-14T10:08:31.880Z,34.78
2017-02-14T10:09:42.180Z,35.06
2017-02-14T10:10:53.251Z,34.97
2017-02-14T10:12:04.090Z,35.06
2017-02-14T10:13:14.842Z,35.06
2017-02-14T10:14:25.166Z,35.16
2017-02-14T10:15:35.472Z,35.06
2017-02-14T10:16:46.213Z,34.97
2017-02-14T10:17:57.166Z,35.06
2017-02-14T10:19:07.478Z,35.16
2017-02-14T10:20:17.781Z,35.06
2017-02-14T10:21:28.476Z,35.06
2017-02-14T10:22:37.986Z,35.06
2017-02-14T10:23:48.187Z,35.06
2017-02-14T10:24:58.882Z,35.16
2017-02-14T10:26:09.576Z,35.26
2017-02-14T10:27:20.270Z,35.06
2017-02-14T10:28:29.805Z,34.97
2017-02-14T10:29:40.754Z,35.16
2017-02-14T10:30:51.414Z,34.59
2017-02-14T10:32:01.303Z,35.06
2017-02-14T10:33:11.991Z,35.16
2017-02-14T10:34:22.277Z,34.59
2017-02-14T10:35:32.751Z,35.06
2017-02-14T10:36:42.653Z,34.78
2017-02-14T10:37:53.498Z,34.59
2017-02-14T10:39:03.455Z,34.59
2017-02-14T10:40:14.155Z,34.97
2017-02-14T10:41:24.406Z,35.16
2017-02-14T10:42:34.733Z,34.97
2017-02-14T10:43:45.058Z,34.59
2017-02-14T10:44:55.794Z,35.16
2017-02-14T10:46:06.481Z,35.16
2017-02-14T10:47:17.527Z,35.06
2017-02-14T10:48:28.631Z,34.68
2017-02-14T10:49:38.173Z,34.59
2017-02-14T10:50:48.858Z,34.68
2017-02-14T10:51:58.754Z,34.59
2017-02-14T10:53:08.983Z,34.68
2017-02-14T10:54:19.286Z,34.68
2017-02-14T10:55:29.612Z,34.68
2017-02-14T10:56:39.910Z,34.68
2017-02-14T10:57:50.575Z,34.59
2017-02-14T10:59:00.389Z,34.59
2017-02-14T11:00:10.306Z,34.49
2017-02-14T11:01:20.222Z,34.68
2017-02-14T11:02:30.542Z,34.68
2017-02-14T11:03:40.498Z,34.68
2017-02-14T11:04:51.406Z,34.59
2017-02-14T11:06:01.698Z,35.06
2017-02-14T11:07:11.587Z,34.68
2017-02-14T11:08:21.884Z,35.16
2017-02-14T11:09:32.576Z,34.68
2017-02-14T11:10:42.590Z,34.97
2017-02-14T11:11:52.887Z,34.68
2017-02-14T11:13:03.204Z,34.59
2017-02-14T11:14:13.511Z,34.97
2017-02-14T11:15:23.407Z,35.16
2017-02-14T11:16:33.592Z,34.78
2017-02-14T11:17:43.936Z,34.59
2017-02-14T11:18:54.227Z,34.68
2017-02-14T11:20:04.522Z,34.59
2017-02-14T11:21:14.076Z,34.59
2017-02-14T11:22:24.997Z,34.68
2017-02-14T11:23:35.291Z,35.06
2017-02-14T11:24:45.575Z,34.68
2017-02-14T11:25:55.474Z,34.59
2017-02-14T11:27:06.170Z,34.78
2017-02-14T11:28:16.996Z,34.68
2017-02-14T11:29:27.296Z,34.49
2017-02-14T11:30:37.563Z,34.68
2017-02-14T11:31:47.495Z,34.68
2017-02-14T11:32:57.790Z,34.68
2017-02-14T11:34:07.825Z,34.78
2017-02-14T11:35:18.127Z,34.68
2017-02-14T11:36:28.441Z,34.59
2017-02-14T11:37:38.753Z,34.59
2017-02-14T11:38:49.058Z,34.68
2017-02-14T11:40:00.086Z,34.59
2017-02-14T11:41:10.411Z,34.59
2017-02-14T11:42:21.115Z,34.68
2017-02-14T11:43:31.794Z,34.59
2017-02-14T11:44:42.480Z,34.59
2017-02-14T11:45:53.056Z,34.59
2017-02-14T11:47:03.733Z,34.39
2017-02-14T11:48:13.980Z,34.68
2017-02-14T11:49:23.875Z,34.59
2017-02-14T11:50:34.194Z,34.68
2017-02-14T11:51:44.090Z,34.68
2017-02-14T11:52:54.347Z,34.59
2017-02-14T11:54:04.658Z,34.68
2017-02-14T11:55:14.960Z,34.59
2017-02-14T11:56:25.918Z,34.59
2017-02-14T11:57:36.070Z,34.59
2017-02-14T11:58:45.965Z,34.68
2017-02-14T11:59:56.634Z,34.59
2017-02-14T12:01:06.966Z,34.59
2017-02-14T12:02:17.640Z,34.68
2017-02-14T12:03:28.084Z,34.51
2017-02-14T12:04:38.357Z,34.68
2017-02-14T12:05:48.250Z,34.49
2017-02-14T12:06:58.592Z,34.49
2017-02-14T12:08:08.921Z,34.39
2017-02-14T12:09:19.015Z,34.39
2017-02-14T12:10:29.712Z,34.78
2017-02-14T12:11:40.400Z,34.49
2017-02-14T12:12:51.376Z,34.49
2017-02-14T12:14:02.020Z,34.61
2017-02-14T12:15:12.582Z,34.39
2017-02-14T12:16:23.274Z,34.51
2017-02-14T12:17:33.949Z,34.49
2017-02-14T12:18:44.629Z,34.49
2017-02-14T12:19:55.311Z,34.78
2017-02-14T12:21:06.249Z,34.39
2017-02-14T12:22:16.171Z,34.39
2017-02-14T12:23:26.463Z,34.39
2017-02-14T12:24:36.763Z,34.49
2017-02-14T12:25:47.035Z,34.49
2017-02-14T12:26:58.052Z,34.51
2017-02-14T12:28:08.370Z,34.49
2017-02-14T12:29:19.089Z,34.61
2017-02-14T12:30:29.388Z,34.59
2017-02-14T12:31:39.680Z,34.49
2017-02-14T12:32:49.303Z,34.49
2017-02-14T12:33:59.591Z,34.51
2017-02-14T12:35:10.272Z,34.49
2017-02-14T12:36:20.938Z,34.61
2017-02-14T12:37:31.247Z,34.3
2017-02-14T12:38:41.899Z,34.61
2017-02-14T12:39:51.811Z,34.41
2017-02-14T12:41:02.121Z,34.39
2017-02-14T12:42:12.066Z,34.3
2017-02-14T12:43:22.372Z,34.8
2017-02-14T12:44:32.549Z,34.31
2017-02-14T12:45:42.448Z,34.39
2017-02-14T12:46:53.161Z,34.39
2017-02-14T12:48:03.074Z,34.41
2017-02-14T12:49:13.385Z,34.51
2017-02-14T12:50:23.412Z,34.41
2017-02-14T12:51:34.089Z,34.31
2017-02-14T12:52:44.784Z,34.8
2017-02-14T12:53:54.688Z,34.3
2017-02-14T12:55:04.596Z,34.49
2017-02-14T12:56:15.019Z,34.31
2017-02-14T12:57:25.342Z,34.41
2017-02-14T12:58:35.636Z,34.39
2017-02-14T12:59:45.927Z,34.39
2017-02-14T13:00:56.584Z,34.51
2017-02-14T13:02:07.030Z,34.39
2017-02-14T13:03:16.946Z,34.39
2017-02-14T13:04:26.859Z,34.41
2017-02-14T13:05:37.574Z,34.31
2017-02-14T13:06:47.517Z,34.89
2017-02-14T13:07:58.352Z,34.3
2017-02-14T13:09:08.613Z,34.31
2017-02-14T13:10:19.337Z,34.89
2017-02-14T13:11:29.254Z,34.41
2017-02-14T13:12:40.218Z,34.3
2017-02-14T13:13:50.382Z,34.31
2017-02-14T13:15:00.703Z,34.89
2017-02-14T13:16:11.009Z,34.31
2017-02-14T13:17:20.930Z,34.8
2017-02-14T13:18:31.230Z,34.89
2017-02-14T13:19:41.034Z,34.22
2017-02-14T13:20:51.729Z,34.31
2017-02-14T13:22:02.036Z,34.99
2017-02-14T13:23:12.366Z,34.8
2017-02-14T13:24:22.276Z,34.99
2017-02-14T13:25:32.875Z,34.31
2017-02-14T13:26:43.181Z,34.89
2017-02-14T13:27:53.065Z,34.41
2017-02-14T13:29:03.383Z,34.99
2017-02-14T13:30:14.057Z,34.41
2017-02-14T13:31:24.675Z,34.39
2017-02-14T13:32:35.033Z,34.31
2017-02-14T13:33:45.710Z,34.31
2017-02-14T13:34:56.010Z,34.41
2017-02-14T13:36:05.922Z,34.41
2017-02-14T13:37:16.830Z,34.41
2017-02-14T13:38:27.156Z,34.41
2017-02-14T13:39:37.459Z,34.31
2017-02-14T13:40:47.334Z,34.3
2017-02-14T13:41:57.623Z,34.31
2017-02-14T13:43:08.565Z,34.41
2017-02-14T13:44:18.870Z,34.99
2017-02-14T13:45:29.574Z,35.08
2017-02-14T13:46:39.888Z,34.31
2017-02-14T13:47:50.211Z,34.41
2017-02-14T13:49:00.602Z,35.08
2017-02-14T13:50:11.271Z,34.99
2017-02-14T13:51:21.960Z,34.41
2017-02-14T13:52:32.297Z,34.31
2017-02-14T13:53:42.208Z,34.99
2017-02-14T13:54:52.396Z,34.8
2017-02-14T13:56:03.118Z,34.41
2017-02-14T13:57:13.416Z,34.22
2017-02-14T13:58:23.768Z,34.41
2017-02-14T13:59:34.450Z,34.31
2017-02-14T14:00:45.101Z,35.08
2017-02-14T14:01:55.419Z,34.31
2017-02-14T14:03:06.094Z,35.08
2017-02-14T14:04:15.991Z,34.99
2017-02-14T14:05:25.924Z,34.22
2017-02-14T14:06:36.503Z,34.61
2017-02-14T14:07:46.798Z,34.7
2017-02-14T14:08:56.685Z,34.12
2017-02-14T14:10:06.593Z,34.61
2017-02-14T14:11:17.307Z,34.12
2017-02-14T14:12:27.167Z,34.51
2017-02-14T14:13:37.120Z,34.22
2017-02-14T14:14:47.812Z,34.31
2017-02-14T14:15:58.571Z,34.22
2017-02-14T14:17:09.293Z,34.7
2017-02-14T14:18:20.312Z,34.61
2017-02-14T14:19:31.013Z,34.03
2017-02-14T14:20:41.336Z,34.22
2017-02-14T14:21:52.005Z,34.7
2017-02-14T14:23:02.671Z,34.61
2017-02-14T14:24:12.761Z,34.61
2017-02-14T14:25:23.442Z,34.22
2017-02-14T14:26:33.388Z,34.22
2017-02-14T14:27:42.891Z,34.41
2017-02-14T14:28:53.183Z,34.22
2017-02-14T14:30:03.614Z,34.61
2017-02-14T14:31:13.913Z,34.12
2017-02-14T14:32:24.221Z,34.03
2017-02-14T14:33:34.920Z,34.51
2017-02-14T14:34:45.201Z,34.61
2017-02-14T14:35:55.996Z,34.51
2017-02-14T14:37:05.893Z,34.61
2017-02-14T14:38:15.806Z,34.61
2017-02-14T14:39:26.110Z,34.41
2017-02-14T14:40:36.835Z,34.61
2017-02-14T14:41:47.155Z,34.41
2017-02-14T14:42:57.472Z,34.41
2017-02-14T14:44:07.389Z,34.31
2017-02-14T14:45:18.047Z,34.51
2017-02-14T14:46:28.721Z,34.41
2017-02-14T14:47:39.358Z,34.22
2017-02-14T14:48:49.662Z,34.61
2017-02-14T14:50:00.341Z,34.22
2017-02-14T14:51:10.301Z,34.61
2017-02-14T14:52:19.865Z,34.61
2017-02-14T14:53:30.454Z,34.12
2017-02-14T14:54:40.750Z,34.22
2017-02-14T14:55:51.423Z,34.61
2017-02-14T14:57:02.081Z,34.12
2017-02-14T14:58:12.766Z,34.22
2017-02-14T14:59:23.400Z,34.8
2017-02-14T15:00:33.691Z,34.61
2017-02-14T15:01:43.992Z,34.22
2017-02-14T15:02:54.302Z,34.7
2017-02-14T15:04:05.015Z,34.61
2017-02-14T15:05:15.980Z,34.22
2017-02-14T15:06:25.918Z,34.22
2017-02-14T15:07:36.625Z,34.61
2017-02-14T15:08:46.966Z,34.22